Friday, January 19, 2018, 3:59 AM GMT
Back to Local

CYWA, Petawawa, Ont.

Location: , , Canada Lat: 45.95
Local Time: 3:59 AM GMT ( 3:59 GMT) Lon: -77.317
Time Zone: GMT Elev: 426 ft

Show me the last for .
Show Coded

Time T Td Feel RH Dir Speed Gust Alt SLP Vis Weather Sky Remarks
2018-01-19 03:31 25 21 16 85 230° 8 - 29.86 - 4 OVC026 None
2018-01-19 03:00 25 21 16 85 230° 8 - 29.86 29.89 3 OVC022 None
2018-01-19 02:12 25 21 17 85 240° 7 - 29.87 - 6 OVC024 None
2018-01-19 02:00 25 21 17 85 240° 7 - 29.86 29.88 6 OVC026 None
2018-01-19 01:20 25 21 17 85 220° 7 - 29.85 - 8 FEW015 OVC028 None
2018-01-19 01:00 25 19 19 79 230° 5 - 29.85 29.88 9 OVC015 OVC030 None
2018-01-19 00:00 25 19 20 79 190° 3 - 29.86 29.89 9 OVC017 None
2018-01-18 23:04 27 19 23 73 230° 3 - 29.86 - 9 OVC024 None
2018-01-18 23:00 27 19 20 73 220° 6 - 29.86 29.89 9 OVC030 None
2018-01-18 22:00 27 19 19 73 230° 7 - 29.86 29.89 9 OVC030 None
2018-01-18 21:00 27 18 18 68 220° 8 - 29.86 29.88 8 OVC028 None
2018-01-18 20:00 27 18 18 68 200° 8 - 29.86 29.88 9 OVC026 OVC037 None
2018-01-18 19:00 27 18 20 68 210° 6 - 29.86 29.88 9 OVC026 OVC037 OVC066 None
2018-01-18 18:56 27 18 19 68 220° 7 - 29.86 - 9 OVC026 OVC037 OVC066 None
2018-01-18 18:00 27 18 19 68 230° 7 - 29.85 29.88 9 OVC024 OVC040 None
2018-01-18 17:29 27 18 21 68 240° 5 - 29.86 - 9 BKN024 OVC038 None
2018-01-18 17:00 27 18 20 68 240° 6 - 29.87 29.89 9 OVC026 None
2018-01-18 16:00 25 18 17 73 230° 7 - 29.89 29.91 9 OVC031 None
2018-01-18 15:00 25 18 19 73 220° 5 - 29.88 29.90 9 OVC036 None
2018-01-18 14:00 23 16 15 73 220° 7 - 29.88 29.90 9 OVC037 None
2018-01-18 13:00 23 16 16 73 230° 6 - 29.87 29.90 9 OVC037 None
2018-01-18 12:00 23 16 16 73 230° 6 - 29.87 29.89 9 OVC037 None
2018-01-18 11:00 23 16 14 73 230° 8 - 29.86 29.89 9 OVC037 None
2018-01-18 10:00 23 16 14 73 230° 8 - 29.86 29.88 9 OVC034 None
2018-01-18 09:00 23 16 14 73 220° 8 - 29.86 29.88 9 OVC032 None
2018-01-18 08:00 23 16 14 73 220° 8 - 29.86 29.89 9 OVC035 None
2018-01-18 07:00 23 16 16 73 220° 6 - 29.87 29.89 9 OVC037 None
2018-01-18 06:00 23 16 15 73 220° 7 - 29.87 29.90 9 OVC026 None
2018-01-18 05:00 23 14 17 67 210° 5 - 29.89 29.92 9 OVC028 None
2018-01-18 04:00 23 14 17 67 220° 5 - 29.91 29.94 9 OVC028 None

Support USWX by starting your Amazon purchase here.